sensor_id;sensor_type;location;lat;lon;timestamp;P1;durP1;ratioP1;P2;durP2;ratioP2
42598;SDS011;28225;42.714;23.860;2023-11-21T00:00:02;24.67;;;14.50;;
42598;SDS011;28225;42.714;23.860;2023-11-21T00:00:20;21.17;;;13.43;;
42598;SDS011;28225;42.714;23.860;2023-11-21T00:00:35;20.73;;;13.63;;
42598;SDS011;28225;42.714;23.860;2023-11-21T00:00:50;20.40;;;13.27;;
42598;SDS011;28225;42.714;23.860;2023-11-21T00:01:06;18.63;;;12.57;;
42598;SDS011;28225;42.714;23.860;2023-11-21T00:01:23;20.13;;;13.02;;
42598;SDS011;28225;42.714;23.860;2023-11-21T00:01:39;20.50;;;12.50;;
42598;SDS011;28225;42.714;23.860;2023-11-21T00:01:54;19.35;;;12.00;;
42598;SDS011;28225;42.714;23.860;2023-11-21T00:02:11;18.08;;;12.07;;
42598;SDS011;28225;42.714;23.860;2023-11-21T00:02:26;17.60;;;12.30;;
42598;SDS011;28225;42.714;23.860;2023-11-21T00:02:43;18.85;;;12.32;;
42598;SDS011;28225;42.714;23.860;2023-11-21T00:02:59;19.38;;;12.45;;
42598;SDS011;28225;42.714;23.860;2023-11-21T00:03:14;20.42;;;13.07;;
42598;SDS011;28225;42.714;23.860;2023-11-21T00:03:30;20.33;;;13.47;;
42598;SDS011;28225;42.714;23.860;2023-11-21T00:03:46;20.10;;;13.65;;
42598;SDS011;28225;42.714;23.860;2023-11-21T00:04:02;21.77;;;14.15;;
42598;SDS011;28225;42.714;23.860;2023-11-21T00:04:17;23.02;;;13.90;;
42598;SDS011;28225;42.714;23.860;2023-11-21T00:04:33;23.57;;;14.53;;
42598;SDS011;28225;42.714;23.860;2023-11-21T00:04:48;23.25;;;15.45;;
42598;SDS011;28225;42.714;23.860;2023-11-21T00:05:04;23.63;;;15.30;;
42598;SDS011;28225;42.714;23.860;2023-11-21T00:05:19;24.45;;;15.45;;
42598;SDS011;28225;42.714;23.860;2023-11-21T00:05:38;25.08;;;15.90;;
42598;SDS011;28225;42.714;23.860;2023-11-21T00:05:53;23.83;;;15.75;;
42598;SDS011;28225;42.714;23.860;2023-11-21T00:06:09;25.23;;;15.63;;
42598;SDS011;28225;42.714;23.860;2023-11-21T00:06:24;27.00;;;15.68;;
42598;SDS011;28225;42.714;23.860;2023-11-21T00:06:40;26.53;;;15.80;;
42598;SDS011;28225;42.714;23.860;2023-11-21T00:06:56;24.73;;;16.07;;
42598;SDS011;28225;42.714;23.860;2023-11-21T00:07:11;25.50;;;17.30;;
42598;SDS011;28225;42.714;23.860;2023-11-21T00:07:27;27.03;;;17.47;;
42598;SDS011;28225;42.714;23.860;2023-11-21T00:07:42;27.75;;;17.58;;
42598;SDS011;28225;42.714;23.860;2023-11-21T00:07:58;28.15;;;18.00;;
42598;SDS011;28225;42.714;23.860;2023-11-21T00:08:14;29.90;;;18.03;;
42598;SDS011;28225;42.714;23.860;2023-11-21T00:08:29;29.65;;;17.70;;
42598;SDS011;28225;42.714;23.860;2023-11-21T00:08:45;27.70;;;17.73;;
42598;SDS011;28225;42.714;23.860;2023-11-21T00:09:00;27.80;;;16.97;;
42598;SDS011;28225;42.714;23.860;2023-11-21T00:09:16;24.45;;;15.25;;
42598;SDS011;28225;42.714;23.860;2023-11-21T00:09:32;22.73;;;14.18;;
42598;SDS011;28225;42.714;23.860;2023-11-21T00:09:48;21.70;;;13.32;;
42598;SDS011;28225;42.714;23.860;2023-11-21T00:10:04;19.20;;;12.70;;
42598;SDS011;28225;42.714;23.860;2023-11-21T00:10:25;20.08;;;12.80;;
42598;SDS011;28225;42.714;23.860;2023-11-21T00:10:41;18.92;;;11.75;;
42598;SDS011;28225;42.714;23.860;2023-11-21T00:10:57;18.97;;;11.03;;
42598;SDS011;28225;42.714;23.860;2023-11-21T00:11:15;19.63;;;11.50;;
42598;SDS011;28225;42.714;23.860;2023-11-21T00:11:30;17.90;;;11.60;;
42598;SDS011;28225;42.714;23.860;2023-11-21T00:11:46;17.08;;;11.23;;
42598;SDS011;28225;42.714;23.860;2023-11-21T00:12:01;16.90;;;11.33;;
42598;SDS011;28225;42.714;23.860;2023-11-21T00:12:17;15.63;;;10.82;;
42598;SDS011;28225;42.714;23.860;2023-11-21T00:12:33;17.10;;;10.57;;
42598;SDS011;28225;42.714;23.860;2023-11-21T00:12:49;17.88;;;10.70;;
42598;SDS011;28225;42.714;23.860;2023-11-21T00:13:04;17.70;;;11.30;;
42598;SDS011;28225;42.714;23.860;2023-11-21T00:13:20;19.50;;;11.53;;
42598;SDS011;28225;42.714;23.860;2023-11-21T00:13:35;21.17;;;11.17;;
42598;SDS011;28225;42.714;23.860;2023-11-21T00:13:51;18.95;;;11.38;;
42598;SDS011;28225;42.714;23.860;2023-11-21T00:14:06;16.87;;;10.83;;
42598;SDS011;28225;42.714;23.860;2023-11-21T00:14:23;17.20;;;10.63;;
42598;SDS011;28225;42.714;23.860;2023-11-21T00:14:38;16.10;;;10.27;;
42598;SDS011;28225;42.714;23.860;2023-11-21T00:14:54;17.33;;;10.67;;
42598;SDS011;28225;42.714;23.860;2023-11-21T00:15:10;18.10;;;11.38;;
42598;SDS011;28225;42.714;23.860;2023-11-21T00:15:28;17.38;;;11.43;;
42598;SDS011;28225;42.714;23.860;2023-11-21T00:15:44;17.15;;;11.07;;
42598;SDS011;28225;42.714;23.860;2023-11-21T00:15:59;18.10;;;10.27;;
42598;SDS011;28225;42.714;23.860;2023-11-21T00:16:15;16.60;;;10.20;;
42598;SDS011;28225;42.714;23.860;2023-11-21T00:16:30;15.03;;;10.70;;
42598;SDS011;28225;42.714;23.860;2023-11-21T00:16:46;14.07;;;9.80;;
42598;SDS011;28225;42.714;23.860;2023-11-21T00:17:01;13.30;;;9.02;;
42598;SDS011;28225;42.714;23.860;2023-11-21T00:17:17;14.43;;;9.00;;
42598;SDS011;28225;42.714;23.860;2023-11-21T00:17:32;15.40;;;9.15;;
42598;SDS011;28225;42.714;23.860;2023-11-21T00:17:48;16.83;;;9.83;;
42598;SDS011;28225;42.714;23.860;2023-11-21T00:18:03;16.33;;;9.80;;
42598;SDS011;28225;42.714;23.860;2023-11-21T00:18:18;13.70;;;9.50;;
42598;SDS011;28225;42.714;23.860;2023-11-21T00:18:34;13.35;;;9.20;;
42598;SDS011;28225;42.714;23.860;2023-11-21T00:18:50;16.08;;;9.43;;
42598;SDS011;28225;42.714;23.860;2023-11-21T00:19:06;17.73;;;9.95;;
42598;SDS011;28225;42.714;23.860;2023-11-21T00:19:21;18.73;;;10.43;;
42598;SDS011;28225;42.714;23.860;2023-11-21T00:19:37;20.30;;;10.75;;
42598;SDS011;28225;42.714;23.860;2023-11-21T00:19:52;20.50;;;10.87;;
42598;SDS011;28225;42.714;23.860;2023-11-21T00:20:08;19.67;;;10.50;;
42598;SDS011;28225;42.714;23.860;2023-11-21T00:20:27;18.70;;;10.27;;
42598;SDS011;28225;42.714;23.860;2023-11-21T00:20:43;15.33;;;10.83;;
42598;SDS011;28225;42.714;23.860;2023-11-21T00:20:58;16.85;;;11.07;;
42598;SDS011;28225;42.714;23.860;2023-11-21T00:21:14;17.63;;;11.30;;
42598;SDS011;28225;42.714;23.860;2023-11-21T00:21:29;17.63;;;11.50;;
42598;SDS011;28225;42.714;23.860;2023-11-21T00:21:45;17.92;;;10.88;;
42598;SDS011;28225;42.714;23.860;2023-11-21T00:22:00;18.30;;;11.97;;
42598;SDS011;28225;42.714;23.860;2023-11-21T00:22:16;19.63;;;12.97;;
42598;SDS011;28225;42.714;23.860;2023-11-21T00:22:31;19.75;;;13.23;;
42598;SDS011;28225;42.714;23.860;2023-11-21T00:22:50;22.17;;;13.85;;
42598;SDS011;28225;42.714;23.860;2023-11-21T00:23:06;22.63;;;14.10;;
42598;SDS011;28225;42.714;23.860;2023-11-21T00:23:22;21.53;;;13.53;;
42598;SDS011;28225;42.714;23.860;2023-11-21T00:23:37;23.58;;;13.65;;
42598;SDS011;28225;42.714;23.860;2023-11-21T00:23:52;23.63;;;14.20;;
42598;SDS011;28225;42.714;23.860;2023-11-21T00:24:08;23.52;;;14.57;;
42598;SDS011;28225;42.714;23.860;2023-11-21T00:24:24;23.60;;;13.95;;
42598;SDS011;28225;42.714;23.860;2023-11-21T00:24:40;23.08;;;13.05;;
42598;SDS011;28225;42.714;23.860;2023-11-21T00:24:56;22.38;;;12.75;;
42598;SDS011;28225;42.714;23.860;2023-11-21T00:25:12;20.75;;;13.10;;
42598;SDS011;28225;42.714;23.860;2023-11-21T00:25:30;24.13;;;13.88;;
42598;SDS011;28225;42.714;23.860;2023-11-21T00:25:46;23.17;;;13.07;;
42598;SDS011;28225;42.714;23.860;2023-11-21T00:26:01;19.83;;;12.27;;
42598;SDS011;28225;42.714;23.860;2023-11-21T00:26:19;17.52;;;12.18;;
42598;SDS011;28225;42.714;23.860;2023-11-21T00:26:34;16.73;;;11.63;;
42598;SDS011;28225;42.714;23.860;2023-11-21T00:26:52;17.20;;;12.20;;
42598;SDS011;28225;42.714;23.860;2023-11-21T00:27:08;17.77;;;13.07;;
42598;SDS011;28225;42.714;23.860;2023-11-21T00:27:23;20.33;;;13.23;;
42598;SDS011;28225;42.714;23.860;2023-11-21T00:27:39;23.73;;;14.10;;
42598;SDS011;28225;42.714;23.860;2023-11-21T00:27:54;21.83;;;13.93;;
42598;SDS011;28225;42.714;23.860;2023-11-21T00:28:09;21.33;;;13.43;;
42598;SDS011;28225;42.714;23.860;2023-11-21T00:28:26;20.58;;;13.30;;
42598;SDS011;28225;42.714;23.860;2023-11-21T00:28:41;18.08;;;12.60;;
42598;SDS011;28225;42.714;23.860;2023-11-21T00:28:57;20.08;;;12.43;;
42598;SDS011;28225;42.714;23.860;2023-11-21T00:29:12;20.70;;;12.37;;
42598;SDS011;28225;42.714;23.860;2023-11-21T00:29:28;18.98;;;12.52;;
42598;SDS011;28225;42.714;23.860;2023-11-21T00:29:43;20.63;;;13.03;;
42598;SDS011;28225;42.714;23.860;2023-11-21T00:29:58;21.50;;;13.25;;
42598;SDS011;28225;42.714;23.860;2023-11-21T00:30:14;19.50;;;13.33;;
42598;SDS011;28225;42.714;23.860;2023-11-21T00:30:30;21.35;;;13.85;;
42598;SDS011;28225;42.714;23.860;2023-11-21T00:30:46;23.02;;;13.55;;
42598;SDS011;28225;42.714;23.860;2023-11-21T00:31:01;23.33;;;13.73;;
42598;SDS011;28225;42.714;23.860;2023-11-21T00:31:17;23.35;;;14.35;;
42598;SDS011;28225;42.714;23.860;2023-11-21T00:31:32;20.77;;;14.43;;
42598;SDS011;28225;42.714;23.860;2023-11-21T00:31:47;22.55;;;15.00;;
42598;SDS011;28225;42.714;23.860;2023-11-21T00:32:03;27.40;;;15.73;;
42598;SDS011;28225;42.714;23.860;2023-11-21T00:32:20;26.20;;;15.13;;
42598;SDS011;28225;42.714;23.860;2023-11-21T00:32:36;22.23;;;14.35;;
42598;SDS011;28225;42.714;23.860;2023-11-21T00:32:52;23.10;;;15.05;;
42598;SDS011;28225;42.714;23.860;2023-11-21T00:33:08;22.15;;;15.02;;
42598;SDS011;28225;42.714;23.860;2023-11-21T00:33:23;24.33;;;15.90;;
42598;SDS011;28225;42.714;23.860;2023-11-21T00:33:40;26.83;;;16.33;;
42598;SDS011;28225;42.714;23.860;2023-11-21T00:33:55;26.63;;;15.83;;
42598;SDS011;28225;42.714;23.860;2023-11-21T00:34:11;23.40;;;15.30;;
42598;SDS011;28225;42.714;23.860;2023-11-21T00:34:27;23.27;;;15.20;;
42598;SDS011;28225;42.714;23.860;2023-11-21T00:34:43;26.50;;;16.23;;
42598;SDS011;28225;42.714;23.860;2023-11-21T00:34:58;26.33;;;16.33;;
42598;SDS011;28225;42.714;23.860;2023-11-21T00:35:14;25.23;;;15.93;;
42598;SDS011;28225;42.714;23.860;2023-11-21T00:35:30;26.63;;;16.33;;
42598;SDS011;28225;42.714;23.860;2023-11-21T00:35:46;24.70;;;15.83;;
42598;SDS011;28225;42.714;23.860;2023-11-21T00:36:01;21.60;;;14.38;;
42598;SDS011;28225;42.714;23.860;2023-11-21T00:36:17;24.47;;;14.03;;
42598;SDS011;28225;42.714;23.860;2023-11-21T00:36:33;23.77;;;14.23;;
42598;SDS011;28225;42.714;23.860;2023-11-21T00:36:48;21.63;;;14.87;;
42598;SDS011;28225;42.714;23.860;2023-11-21T00:37:04;23.08;;;15.25;;
42598;SDS011;28225;42.714;23.860;2023-11-21T00:37:19;22.90;;;15.00;;
42598;SDS011;28225;42.714;23.860;2023-11-21T00:37:35;21.25;;;13.95;;
42598;SDS011;28225;42.714;23.860;2023-11-21T00:37:50;23.17;;;14.17;;
42598;SDS011;28225;42.714;23.860;2023-11-21T00:38:05;24.27;;;14.60;;
42598;SDS011;28225;42.714;23.860;2023-11-21T00:38:23;22.05;;;14.15;;
42598;SDS011;28225;42.714;23.860;2023-11-21T00:38:39;20.05;;;12.88;;
42598;SDS011;28225;42.714;23.860;2023-11-21T00:38:55;18.90;;;12.43;;
42598;SDS011;28225;42.714;23.860;2023-11-21T00:39:10;19.60;;;12.85;;
42598;SDS011;28225;42.714;23.860;2023-11-21T00:39:27;21.52;;;12.80;;
42598;SDS011;28225;42.714;23.860;2023-11-21T00:39:42;23.87;;;12.17;;
42598;SDS011;28225;42.714;23.860;2023-11-21T00:39:58;22.08;;;12.30;;
42598;SDS011;28225;42.714;23.860;2023-11-21T00:40:13;18.13;;;12.10;;
42598;SDS011;28225;42.714;23.860;2023-11-21T00:40:30;16.17;;;11.35;;
42598;SDS011;28225;42.714;23.860;2023-11-21T00:40:46;17.77;;;11.40;;
42598;SDS011;28225;42.714;23.860;2023-11-21T00:41:01;17.83;;;11.10;;
42598;SDS011;28225;42.714;23.860;2023-11-21T00:41:17;15.90;;;10.82;;
42598;SDS011;28225;42.714;23.860;2023-11-21T00:41:32;16.58;;;10.77;;
42598;SDS011;28225;42.714;23.860;2023-11-21T00:41:48;15.93;;;10.83;;
42598;SDS011;28225;42.714;23.860;2023-11-21T00:42:03;14.10;;;10.95;;
42598;SDS011;28225;42.714;23.860;2023-11-21T00:42:19;15.30;;;11.20;;
42598;SDS011;28225;42.714;23.860;2023-11-21T00:42:36;17.58;;;11.35;;
42598;SDS011;28225;42.714;23.860;2023-11-21T00:42:52;17.67;;;11.18;;
42598;SDS011;28225;42.714;23.860;2023-11-21T00:43:07;15.77;;;10.93;;
42598;SDS011;28225;42.714;23.860;2023-11-21T00:43:22;15.18;;;10.93;;
42598;SDS011;28225;42.714;23.860;2023-11-21T00:43:38;15.20;;;11.07;;
42598;SDS011;28225;42.714;23.860;2023-11-21T00:43:54;16.60;;;11.20;;
42598;SDS011;28225;42.714;23.860;2023-11-21T00:44:10;17.38;;;11.18;;
42598;SDS011;28225;42.714;23.860;2023-11-21T00:44:26;17.02;;;11.65;;
42598;SDS011;28225;42.714;23.860;2023-11-21T00:44:41;19.05;;;12.88;;
42598;SDS011;28225;42.714;23.860;2023-11-21T00:44:57;18.43;;;12.77;;
42598;SDS011;28225;42.714;23.860;2023-11-21T00:45:12;17.02;;;12.07;;
42598;SDS011;28225;42.714;23.860;2023-11-21T00:45:28;18.20;;;12.43;;
42598;SDS011;28225;42.714;23.860;2023-11-21T00:45:43;18.58;;;12.90;;
42598;SDS011;28225;42.714;23.860;2023-11-21T00:45:59;19.10;;;13.80;;
42598;SDS011;28225;42.714;23.860;2023-11-21T00:46:14;21.50;;;13.68;;
42598;SDS011;28225;42.714;23.860;2023-11-21T00:46:30;21.93;;;13.27;;
42598;SDS011;28225;42.714;23.860;2023-11-21T00:46:45;21.63;;;13.82;;
42598;SDS011;28225;42.714;23.860;2023-11-21T00:47:01;23.60;;;14.03;;
42598;SDS011;28225;42.714;23.860;2023-11-21T00:47:18;21.52;;;13.60;;
42598;SDS011;28225;42.714;23.860;2023-11-21T00:47:33;17.90;;;12.83;;
42598;SDS011;28225;42.714;23.860;2023-11-21T00:47:48;18.98;;;13.02;;
42598;SDS011;28225;42.714;23.860;2023-11-21T00:48:04;21.23;;;12.90;;
42598;SDS011;28225;42.714;23.860;2023-11-21T00:48:19;21.58;;;13.40;;
42598;SDS011;28225;42.714;23.860;2023-11-21T00:48:35;21.70;;;13.90;;
42598;SDS011;28225;42.714;23.860;2023-11-21T00:48:50;22.90;;;14.13;;
42598;SDS011;28225;42.714;23.860;2023-11-21T00:49:06;24.57;;;14.50;;
42598;SDS011;28225;42.714;23.860;2023-11-21T00:49:21;24.67;;;14.93;;
42598;SDS011;28225;42.714;23.860;2023-11-21T00:49:37;22.87;;;14.60;;
42598;SDS011;28225;42.714;23.860;2023-11-21T00:49:54;22.13;;;14.10;;
42598;SDS011;28225;42.714;23.860;2023-11-21T00:50:09;22.20;;;14.32;;
42598;SDS011;28225;42.714;23.860;2023-11-21T00:50:25;24.70;;;15.27;;
42598;SDS011;28225;42.714;23.860;2023-11-21T00:50:40;23.85;;;15.35;;
42598;SDS011;28225;42.714;23.860;2023-11-21T00:50:56;23.50;;;14.30;;
42598;SDS011;28225;42.714;23.860;2023-11-21T00:51:11;22.52;;;13.95;;
42598;SDS011;28225;42.714;23.860;2023-11-21T00:51:27;20.67;;;14.93;;
42598;SDS011;28225;42.714;23.860;2023-11-21T00:51:42;22.52;;;15.00;;
42598;SDS011;28225;42.714;23.860;2023-11-21T00:51:58;24.67;;;14.40;;
42598;SDS011;28225;42.714;23.860;2023-11-21T00:52:13;24.25;;;14.65;;
42598;SDS011;28225;42.714;23.860;2023-11-21T00:52:29;22.27;;;14.53;;
42598;SDS011;28225;42.714;23.860;2023-11-21T00:52:44;21.90;;;14.30;;
42598;SDS011;28225;42.714;23.860;2023-11-21T00:52:59;20.83;;;14.33;;
42598;SDS011;28225;42.714;23.860;2023-11-21T00:53:15;21.03;;;14.17;;
42598;SDS011;28225;42.714;23.860;2023-11-21T00:53:30;22.75;;;14.25;;
42598;SDS011;28225;42.714;23.860;2023-11-21T00:53:47;22.02;;;14.93;;
42598;SDS011;28225;42.714;23.860;2023-11-21T00:54:02;23.40;;;14.80;;
42598;SDS011;28225;42.714;23.860;2023-11-21T00:54:18;23.70;;;14.17;;
42598;SDS011;28225;42.714;23.860;2023-11-21T00:54:33;22.05;;;14.27;;
42598;SDS011;28225;42.714;23.860;2023-11-21T00:54:49;22.73;;;14.43;;
42598;SDS011;28225;42.714;23.860;2023-11-21T00:55:05;22.52;;;14.45;;
42598;SDS011;28225;42.714;23.860;2023-11-21T00:55:22;20.95;;;14.50;;
42598;SDS011;28225;42.714;23.860;2023-11-21T00:55:38;21.65;;;14.43;;
42598;SDS011;28225;42.714;23.860;2023-11-21T00:55:56;22.83;;;14.30;;
42598;SDS011;28225;42.714;23.860;2023-11-21T00:56:12;22.25;;;14.48;;
42598;SDS011;28225;42.714;23.860;2023-11-21T00:56:28;23.45;;;15.18;;
42598;SDS011;28225;42.714;23.860;2023-11-21T00:56:44;23.90;;;15.77;;
42598;SDS011;28225;42.714;23.860;2023-11-21T00:57:02;23.15;;;15.27;;
42598;SDS011;28225;42.714;23.860;2023-11-21T00:57:18;22.92;;;14.50;;
42598;SDS011;28225;42.714;23.860;2023-11-21T00:57:35;23.70;;;15.00;;
42598;SDS011;28225;42.714;23.860;2023-11-21T00:57:50;22.90;;;14.98;;
42598;SDS011;28225;42.714;23.860;2023-11-21T00:58:06;21.13;;;14.47;;
42598;SDS011;28225;42.714;23.860;2023-11-21T00:58:21;25.02;;;14.52;;
42598;SDS011;28225;42.714;23.860;2023-11-21T00:58:37;24.13;;;13.70;;
42598;SDS011;28225;42.714;23.860;2023-11-21T00:58:53;20.63;;;13.82;;
42598;SDS011;28225;42.714;23.860;2023-11-21T00:59:08;19.38;;;13.95;;
42598;SDS011;28225;42.714;23.860;2023-11-21T00:59:24;21.50;;;13.53;;
42598;SDS011;28225;42.714;23.860;2023-11-21T00:59:39;21.38;;;13.50;;
42598;SDS011;28225;42.714;23.860;2023-11-21T00:59:55;20.20;;;13.30;;
42598;SDS011;28225;42.714;23.860;2023-11-21T01:00:10;23.05;;;13.23;;
42598;SDS011;28225;42.714;23.860;2023-11-21T01:00:32;23.60;;;13.95;;
42598;SDS011;28225;42.714;23.860;2023-11-21T01:00:48;22.23;;;15.00;;
42598;SDS011;28225;42.714;23.860;2023-11-21T01:01:04;20.23;;;14.87;;
42598;SDS011;28225;42.714;23.860;2023-11-21T01:01:20;26.55;;;15.50;;
42598;SDS011;28225;42.714;23.860;2023-11-21T01:01:38;29.58;;;16.52;;
42598;SDS011;28225;42.714;23.860;2023-11-21T01:01:53;29.20;;;16.70;;
42598;SDS011;28225;42.714;23.860;2023-11-21T01:02:09;29.67;;;16.75;;
42598;SDS011;28225;42.714;23.860;2023-11-21T01:02:25;26.63;;;16.70;;
42598;SDS011;28225;42.714;23.860;2023-11-21T01:02:41;24.23;;;16.17;;
42598;SDS011;28225;42.714;23.860;2023-11-21T01:02:56;22.30;;;15.68;;
42598;SDS011;28225;42.714;23.860;2023-11-21T01:03:12;23.70;;;15.97;;
42598;SDS011;28225;42.714;23.860;2023-11-21T01:03:27;26.60;;;16.75;;
42598;SDS011;28225;42.714;23.860;2023-11-21T01:03:43;27.17;;;17.40;;
42598;SDS011;28225;42.714;23.860;2023-11-21T01:03:58;25.25;;;16.50;;
42598;SDS011;28225;42.714;23.860;2023-11-21T01:04:14;23.93;;;15.87;;
42598;SDS011;28225;42.714;23.860;2023-11-21T01:04:29;24.63;;;16.60;;
42598;SDS011;28225;42.714;23.860;2023-11-21T01:04:44;24.70;;;16.33;;
42598;SDS011;28225;42.714;23.860;2023-11-21T01:05:00;23.75;;;16.00;;
42598;SDS011;28225;42.714;23.860;2023-11-21T01:05:15;23.90;;;16.13;;
42598;SDS011;28225;42.714;23.860;2023-11-21T01:05:31;22.93;;;15.30;;
42598;SDS011;28225;42.714;23.860;2023-11-21T01:05:46;22.50;;;15.27;;
42598;SDS011;28225;42.714;23.860;2023-11-21T01:06:04;25.77;;;15.95;;
42598;SDS011;28225;42.714;23.860;2023-11-21T01:06:22;24.95;;;15.65;;
42598;SDS011;28225;42.714;23.860;2023-11-21T01:06:38;24.60;;;15.05;;
42598;SDS011;28225;42.714;23.860;2023-11-21T01:06:53;21.80;;;14.60;;
42598;SDS011;28225;42.714;23.860;2023-11-21T01:07:09;21.42;;;13.82;;
42598;SDS011;28225;42.714;23.860;2023-11-21T01:07:24;22.67;;;13.93;;
42598;SDS011;28225;42.714;23.860;2023-11-21T01:07:40;24.73;;;14.48;;
42598;SDS011;28225;42.714;23.860;2023-11-21T01:07:55;25.20;;;14.13;;
42598;SDS011;28225;42.714;23.860;2023-11-21T01:08:11;21.97;;;14.57;;
42598;SDS011;28225;42.714;23.860;2023-11-21T01:08:27;22.42;;;15.27;;
42598;SDS011;28225;42.714;23.860;2023-11-21T01:08:43;21.90;;;15.05;;
42598;SDS011;28225;42.714;23.860;2023-11-21T01:08:59;23.20;;;14.50;;
42598;SDS011;28225;42.714;23.860;2023-11-21T01:09:14;22.33;;;14.00;;
42598;SDS011;28225;42.714;23.860;2023-11-21T01:09:32;19.13;;;13.90;;
42598;SDS011;28225;42.714;23.860;2023-11-21T01:09:47;21.02;;;14.35;;
42598;SDS011;28225;42.714;23.860;2023-11-21T01:10:03;22.20;;;14.32;;
42598;SDS011;28225;42.714;23.860;2023-11-21T01:10:22;20.92;;;14.43;;
42598;SDS011;28225;42.714;23.860;2023-11-21T01:10:37;22.00;;;14.60;;
42598;SDS011;28225;42.714;23.860;2023-11-21T01:10:53;23.90;;;14.52;;
42598;SDS011;28225;42.714;23.860;2023-11-21T01:11:08;28.17;;;15.90;;
42598;SDS011;28225;42.714;23.860;2023-11-21T01:11:26;31.30;;;17.95;;
42598;SDS011;28225;42.714;23.860;2023-11-21T01:11:42;28.73;;;17.52;;
42598;SDS011;28225;42.714;23.860;2023-11-21T01:11:58;25.00;;;16.53;;
42598;SDS011;28225;42.714;23.860;2023-11-21T01:12:14;26.85;;;16.38;;
42598;SDS011;28225;42.714;23.860;2023-11-21T01:12:34;28.80;;;16.38;;
42598;SDS011;28225;42.714;23.860;2023-11-21T01:12:50;24.42;;;15.07;;
42598;SDS011;28225;42.714;23.860;2023-11-21T01:13:06;23.43;;;15.10;;
42598;SDS011;28225;42.714;23.860;2023-11-21T01:13:22;29.20;;;17.08;;
42598;SDS011;28225;42.714;23.860;2023-11-21T01:13:40;33.50;;;19.67;;
42598;SDS011;28225;42.714;23.860;2023-11-21T01:13:56;32.58;;;19.65;;
42598;SDS011;28225;42.714;23.860;2023-11-21T01:14:12;35.33;;;19.35;;
42598;SDS011;28225;42.714;23.860;2023-11-21T01:14:28;35.50;;;19.95;;
42598;SDS011;28225;42.714;23.860;2023-11-21T01:14:44;29.33;;;19.40;;
42598;SDS011;28225;42.714;23.860;2023-11-21T01:15:00;29.02;;;18.35;;
42598;SDS011;28225;42.714;23.860;2023-11-21T01:15:16;30.23;;;17.87;;
42598;SDS011;28225;42.714;23.860;2023-11-21T01:15:31;31.88;;;18.00;;
42598;SDS011;28225;42.714;23.860;2023-11-21T01:15:47;31.83;;;18.03;;
42598;SDS011;28225;42.714;23.860;2023-11-21T01:16:02;30.13;;;18.47;;
42598;SDS011;28225;42.714;23.860;2023-11-21T01:16:18;30.13;;;18.58;;
42598;SDS011;28225;42.714;23.860;2023-11-21T01:16:34;28.88;;;17.80;;
42598;SDS011;28225;42.714;23.860;2023-11-21T01:16:49;28.03;;;17.10;;
42598;SDS011;28225;42.714;23.860;2023-11-21T01:17:05;28.25;;;16.92;;
42598;SDS011;28225;42.714;23.860;2023-11-21T01:17:20;28.97;;;17.50;;
42598;SDS011;28225;42.714;23.860;2023-11-21T01:17:37;30.52;;;17.95;;
42598;SDS011;28225;42.714;23.860;2023-11-21T01:17:53;32.55;;;17.50;;
42598;SDS011;28225;42.714;23.860;2023-11-21T01:18:08;29.07;;;16.57;;
42598;SDS011;28225;42.714;23.860;2023-11-21T01:18:24;26.45;;;16.83;;
42598;SDS011;28225;42.714;23.860;2023-11-21T01:18:40;27.90;;;17.42;;
42598;SDS011;28225;42.714;23.860;2023-11-21T01:18:56;29.80;;;18.45;;
42598;SDS011;28225;42.714;23.860;2023-11-21T01:19:11;28.50;;;18.43;;
42598;SDS011;28225;42.714;23.860;2023-11-21T01:19:27;24.93;;;16.57;;
42598;SDS011;28225;42.714;23.860;2023-11-21T01:19:43;22.58;;;15.38;;
42598;SDS011;28225;42.714;23.860;2023-11-21T01:19:59;22.30;;;14.35;;
42598;SDS011;28225;42.714;23.860;2023-11-21T01:20:15;21.52;;;13.45;;
42598;SDS011;28225;42.714;23.860;2023-11-21T01:20:32;19.83;;;12.25;;
42598;SDS011;28225;42.714;23.860;2023-11-21T01:20:47;16.20;;;11.30;;
42598;SDS011;28225;42.714;23.860;2023-11-21T01:21:03;16.23;;;11.55;;
42598;SDS011;28225;42.714;23.860;2023-11-21T01:21:19;18.02;;;11.70;;
42598;SDS011;28225;42.714;23.860;2023-11-21T01:21:34;17.57;;;11.57;;
42598;SDS011;28225;42.714;23.860;2023-11-21T01:21:50;17.13;;;11.43;;
42598;SDS011;28225;42.714;23.860;2023-11-21T01:22:07;17.95;;;11.25;;
42598;SDS011;28225;42.714;23.860;2023-11-21T01:22:23;17.85;;;10.68;;
42598;SDS011;28225;42.714;23.860;2023-11-21T01:22:40;16.42;;;9.55;;
42598;SDS011;28225;42.714;23.860;2023-11-21T01:22:56;16.23;;;9.20;;
42598;SDS011;28225;42.714;23.860;2023-11-21T01:23:11;14.73;;;8.50;;
42598;SDS011;28225;42.714;23.860;2023-11-21T01:23:29;15.82;;;9.02;;
42598;SDS011;28225;42.714;23.860;2023-11-21T01:23:45;14.18;;;8.85;;
42598;SDS011;28225;42.714;23.860;2023-11-21T01:24:00;12.87;;;9.53;;
42598;SDS011;28225;42.714;23.860;2023-11-21T01:24:16;13.95;;;9.80;;
42598;SDS011;28225;42.714;23.860;2023-11-21T01:24:31;13.63;;;8.97;;
42598;SDS011;28225;42.714;23.860;2023-11-21T01:24:47;14.45;;;9.27;;
42598;SDS011;28225;42.714;23.860;2023-11-21T01:25:02;14.83;;;9.30;;
42598;SDS011;28225;42.714;23.860;2023-11-21T01:25:22;12.93;;;8.05;;
42598;SDS011;28225;42.714;23.860;2023-11-21T01:25:37;12.17;;;7.47;;
42598;SDS011;28225;42.714;23.860;2023-11-21T01:25:54;10.13;;;7.57;;
42598;SDS011;28225;42.714;23.860;2023-11-21T01:26:11;9.32;;;7.45;;
42598;SDS011;28225;42.714;23.860;2023-11-21T01:26:26;9.48;;;7.30;;
42598;SDS011;28225;42.714;23.860;2023-11-21T01:26:42;10.20;;;7.25;;
42598;SDS011;28225;42.714;23.860;2023-11-21T01:26:58;10.65;;;7.47;;
42598;SDS011;28225;42.714;23.860;2023-11-21T01:27:13;10.90;;;8.00;;
42598;SDS011;28225;42.714;23.860;2023-11-21T01:27:29;10.15;;;7.75;;
42598;SDS011;28225;42.714;23.860;2023-11-21T01:27:45;9.82;;;7.57;;
42598;SDS011;28225;42.714;23.860;2023-11-21T01:28:00;10.00;;;7.70;;
42598;SDS011;28225;42.714;23.860;2023-11-21T01:28:16;10.93;;;7.70;;
42598;SDS011;28225;42.714;23.860;2023-11-21T01:28:31;10.63;;;7.23;;
42598;SDS011;28225;42.714;23.860;2023-11-21T01:28:47;9.55;;;7.13;;
42598;SDS011;28225;42.714;23.860;2023-11-21T01:29:04;13.10;;;8.32;;
42598;SDS011;28225;42.714;23.860;2023-11-21T01:29:19;14.93;;;9.93;;
42598;SDS011;28225;42.714;23.860;2023-11-21T01:29:35;14.40;;;11.00;;
42598;SDS011;28225;42.714;23.860;2023-11-21T01:29:50;16.20;;;11.43;;
42598;SDS011;28225;42.714;23.860;2023-11-21T01:30:08;20.55;;;12.50;;
42598;SDS011;28225;42.714;23.860;2023-11-21T01:30:25;20.30;;;12.75;;
42598;SDS011;28225;42.714;23.860;2023-11-21T01:30:41;16.80;;;12.25;;
42598;SDS011;28225;42.714;23.860;2023-11-21T01:30:56;17.13;;;11.93;;
42598;SDS011;28225;42.714;23.860;2023-11-21T01:31:12;15.45;;;11.48;;
42598;SDS011;28225;42.714;23.860;2023-11-21T01:31:28;14.30;;;11.13;;
42598;SDS011;28225;42.714;23.860;2023-11-21T01:31:44;16.95;;;10.85;;